Jesenik, Czech Republic
Current Conditions -  °F | °C
As of 5:30 PM on Friday 24 Oct 2014 (Local Time) from LKMT Reporting Station
Broken Clouds Broken Clouds  
Wind Chill: 30°   Ceiling: 1800
Heat Index: 39°   Visibility: 6mi
Dew Point: 34°   Wind: 16mph
Humidity: 81%   Direction: 40°NE
Pressure: 30.21"   Gusts: NA
Location:  50.23°N, 17.2°E
Report Text: LKMT 241530Z 04014KT 9000 BKN018 BKN022 04/01 Q1023 TEMPOBKN015
Loading
Personal Weather Stations






























Interactive Weather Map
Tropical Storm Tracking
New forecast layout! Learn more

10-Day Weather Forecast

Advertisements
Track Severe Weather on mobile